Terminal Aerodrome Forecast
Issued by NWS

Home | Current Version | Previous Version | Graphics & Text | Print | Product List | Glossary Off
Versions: 1 2 3 4 5 6 7 8 9 10 11 12 13 14 15 16 17 18 19 20 21

000
FTUS43 KMPX 211855 AAA
TAFRNH
TAF AMD
KRNH 211855Z 2119/2218 15012KT P6SM VCSH SCT012 BKN020 BKN090
     FM212030 15012KT P6SM SCT020 BKN090
     FM220600 14010KT P6SM VCTS BKN090CB
     FM220700 10005KT P6SM SCT020 BKN060
     FM220800 12004KT P6SM BKN045
     FM221000 VRB03KT P6SM BKN025
     FM221300 36004KT P6SM BKN008
     FM221600 34006KT P6SM SCT012 BKN020=

USA.gov is the U.S. government's official web portal to all federal, state and local government web resources and services.